createdAt,value
2022-12-31T00:02:06.572Z,25.00
2022-12-31T00:04:37.826Z,23.95
2022-12-31T00:07:28.458Z,23.88
2022-12-31T00:09:59.503Z,23.95
2022-12-31T00:12:30.450Z,24.45
2022-12-31T00:17:46.142Z,25.60
2022-12-31T00:20:17.954Z,24.98
2022-12-31T00:22:48.932Z,24.85
2022-12-31T00:25:19.850Z,25.10
2022-12-31T00:27:51.270Z,24.85
2022-12-31T00:30:23.744Z,23.13
2022-12-31T00:32:54.767Z,25.60
2022-12-31T00:35:25.773Z,24.85
2022-12-31T00:37:56.897Z,25.27
2022-12-31T00:40:27.819Z,24.80
2022-12-31T00:42:58.697Z,23.88
2022-12-31T00:45:29.543Z,25.95
2022-12-31T00:48:00.545Z,25.08
2022-12-31T00:50:32.608Z,23.75
2022-12-31T00:53:23.610Z,24.67
2022-12-31T00:55:54.680Z,24.65
2022-12-31T00:58:25.647Z,24.42
2022-12-31T01:00:56.877Z,23.50
2022-12-31T01:03:28.626Z,24.42
2022-12-31T01:06:02.925Z,24.52
2022-12-31T01:08:34.072Z,22.77
2022-12-31T01:11:20.818Z,25.00
2022-12-31T01:14:04.441Z,24.15
2022-12-31T01:16:51.759Z,22.95
2022-12-31T01:19:29.430Z,25.00
2022-12-31T01:22:05.048Z,23.00
2022-12-31T01:24:37.111Z,25.00
2022-12-31T01:27:08.004Z,25.42
2022-12-31T01:29:38.843Z,25.15
2022-12-31T01:32:09.825Z,24.88
2022-12-31T01:34:40.877Z,25.42
2022-12-31T01:37:12.042Z,23.92
2022-12-31T01:39:42.880Z,23.77
2022-12-31T01:42:14.583Z,23.85
2022-12-31T01:45:11.282Z,24.05
2022-12-31T01:47:50.179Z,23.70
2022-12-31T01:50:32.302Z,24.60
2022-12-31T01:53:06.501Z,24.45
2022-12-31T01:55:47.844Z,23.67
2022-12-31T01:58:25.061Z,23.65
2022-12-31T02:00:58.313Z,23.65
2022-12-31T02:03:30.942Z,24.92
2022-12-31T02:06:23.580Z,23.02
2022-12-31T02:08:54.555Z,23.23
2022-12-31T02:11:29.390Z,23.92
2022-12-31T02:14:03.494Z,22.25
2022-12-31T02:16:42.128Z,23.60
2022-12-31T02:19:49.535Z,23.42
2022-12-31T02:22:56.890Z,22.35
2022-12-31T02:25:56.128Z,23.02
2022-12-31T02:31:50.488Z,22.85
2022-12-31T02:34:34.817Z,23.08
2022-12-31T02:37:30.743Z,21.77
2022-12-31T02:40:23.004Z,21.90
2022-12-31T02:42:55.721Z,21.80
2022-12-31T02:45:41.139Z,22.55
2022-12-31T02:48:38.421Z,23.40
2022-12-31T02:51:31.780Z,23.23
2022-12-31T02:54:18.427Z,23.83
2022-12-31T02:57:15.929Z,20.92
2022-12-31T03:00:27.842Z,22.30
2022-12-31T03:03:03.537Z,20.58
2022-12-31T03:05:40.925Z,21.77
2022-12-31T03:08:13.575Z,21.73
2022-12-31T03:10:46.100Z,21.42
2022-12-31T03:13:38.016Z,21.60
2022-12-31T03:16:10.909Z,20.48
2022-12-31T03:18:59.761Z,21.17
2022-12-31T03:22:08.613Z,21.75
2022-12-31T03:24:57.382Z,21.25
2022-12-31T03:27:28.331Z,21.40
2022-12-31T03:30:00.330Z,22.40
2022-12-31T03:32:31.447Z,21.58
2022-12-31T03:35:02.321Z,22.95
2022-12-31T03:37:33.196Z,21.90
2022-12-31T03:40:27.382Z,22.48
2022-12-31T03:42:58.444Z,22.92
2022-12-31T03:45:29.549Z,21.65
2022-12-31T03:48:00.574Z,22.30
2022-12-31T03:50:34.020Z,20.55
2022-12-31T03:53:07.264Z,21.38
2022-12-31T03:55:39.229Z,22.33
2022-12-31T03:58:10.247Z,21.90
2022-12-31T04:00:41.128Z,21.45
2022-12-31T04:03:12.294Z,20.42
2022-12-31T04:05:43.458Z,21.58
2022-12-31T04:08:14.727Z,21.75
2022-12-31T04:10:51.500Z,21.92
2022-12-31T04:13:22.423Z,19.95
2022-12-31T04:16:16.253Z,20.42
2022-12-31T04:18:49.473Z,20.83
2022-12-31T04:21:20.577Z,20.90
2022-12-31T04:23:51.675Z,21.67
2022-12-31T04:26:24.590Z,20.77
2022-12-31T04:29:19.336Z,20.80
2022-12-31T04:31:50.471Z,20.63
2022-12-31T04:37:21.273Z,20.05
2022-12-31T04:39:52.460Z,20.13
2022-12-31T04:42:24.552Z,20.70
2022-12-31T04:44:55.584Z,20.45
2022-12-31T04:47:27.932Z,21.83
2022-12-31T04:50:01.178Z,20.52
2022-12-31T04:52:34.616Z,20.83
2022-12-31T04:55:10.215Z,19.75
2022-12-31T04:57:42.865Z,21.05
2022-12-31T05:00:15.924Z,19.90
2022-12-31T05:02:47.080Z,20.45
2022-12-31T05:05:20.823Z,20.27
2022-12-31T05:07:52.530Z,19.38
2022-12-31T05:10:23.444Z,20.88
2022-12-31T05:12:54.474Z,19.48
2022-12-31T05:15:26.092Z,20.65
2022-12-31T05:20:42.843Z,19.85
2022-12-31T05:23:17.773Z,20.08
2022-12-31T05:25:53.096Z,20.40
2022-12-31T05:28:24.602Z,19.65
2022-12-31T05:30:55.814Z,20.05
2022-12-31T05:33:28.454Z,20.05
2022-12-31T05:36:01.064Z,21.15
2022-12-31T05:38:32.145Z,20.08
2022-12-31T05:41:08.152Z,18.48
2022-12-31T05:44:00.403Z,19.33
2022-12-31T05:46:34.597Z,19.08
2022-12-31T05:49:06.607Z,18.17
2022-12-31T05:51:39.100Z,19.52
2022-12-31T05:54:11.881Z,18.75
2022-12-31T05:56:45.443Z,19.80
2022-12-31T05:59:19.948Z,19.25
2022-12-31T06:01:51.590Z,19.20
2022-12-31T06:04:44.125Z,19.75
2022-12-31T06:07:16.120Z,18.52
2022-12-31T06:09:47.166Z,18.35
2022-12-31T06:12:20.330Z,18.55
2022-12-31T06:14:52.371Z,18.53
2022-12-31T06:17:24.430Z,18.63
2022-12-31T06:19:55.340Z,17.85
2022-12-31T06:22:26.152Z,19.27
2022-12-31T06:24:57.751Z,19.17
2022-12-31T06:27:29.891Z,17.95
2022-12-31T06:30:01.129Z,19.05
2022-12-31T06:32:32.693Z,19.83
2022-12-31T06:35:04.943Z,18.23
2022-12-31T06:37:36.095Z,18.42
2022-12-31T06:40:18.696Z,18.70
2022-12-31T06:42:56.004Z,17.88
2022-12-31T06:45:33.296Z,17.80
2022-12-31T06:48:04.271Z,19.55
2022-12-31T06:50:37.538Z,17.85
2022-12-31T06:55:40.301Z,16.65
2022-12-31T06:58:16.609Z,17.83
2022-12-31T07:01:24.630Z,19.08
2022-12-31T07:04:33.569Z,17.13
2022-12-31T07:07:20.910Z,16.77
2022-12-31T07:10:30.020Z,17.02
2022-12-31T07:13:15.423Z,17.75
2022-12-31T07:16:07.206Z,16.85
2022-12-31T07:19:06.886Z,17.23
2022-12-31T07:24:26.771Z,17.25
2022-12-31T07:27:23.184Z,17.08
2022-12-31T07:30:07.004Z,16.55
2022-12-31T07:32:43.956Z,16.38
2022-12-31T07:35:47.018Z,17.60
2022-12-31T07:38:45.753Z,18.25
2022-12-31T07:41:30.591Z,16.55
2022-12-31T07:44:46.041Z,16.25
2022-12-31T07:47:22.966Z,16.13
2022-12-31T07:49:56.151Z,16.77
2022-12-31T07:52:27.436Z,17.98
2022-12-31T07:54:59.727Z,16.92
2022-12-31T07:57:36.375Z,16.48
2022-12-31T08:00:15.300Z,16.10
2022-12-31T08:03:02.305Z,17.50
2022-12-31T08:05:55.712Z,15.82
2022-12-31T08:08:46.226Z,15.82
2022-12-31T08:11:33.513Z,15.82
2022-12-31T08:14:04.960Z,15.98
2022-12-31T08:16:44.862Z,16.35
2022-12-31T08:22:27.318Z,16.10
2022-12-31T08:25:16.482Z,16.00
2022-12-31T08:28:28.009Z,15.65
2022-12-31T08:31:13.211Z,16.00
2022-12-31T08:34:36.155Z,16.35
2022-12-31T08:40:40.597Z,16.17
2022-12-31T08:43:28.441Z,15.07
2022-12-31T08:46:01.959Z,15.65
2022-12-31T08:48:44.002Z,16.30
2022-12-31T08:51:23.399Z,15.95
2022-12-31T08:53:56.487Z,15.35
2022-12-31T08:57:05.824Z,15.82
2022-12-31T08:59:41.982Z,15.98
2022-12-31T09:02:29.656Z,16.52
2022-12-31T09:05:27.512Z,15.80
2022-12-31T09:08:32.448Z,16.77
2022-12-31T09:11:23.120Z,17.10
2022-12-31T09:14:06.502Z,16.17
2022-12-31T09:16:55.813Z,16.52
2022-12-31T09:19:27.975Z,15.75
2022-12-31T09:21:59.332Z,18.20
2022-12-31T09:24:31.918Z,16.52
2022-12-31T09:27:08.475Z,17.42
2022-12-31T09:30:12.214Z,17.85
2022-12-31T09:36:17.043Z,19.38
2022-12-31T09:38:58.726Z,19.50
2022-12-31T09:41:42.315Z,18.85
2022-12-31T09:44:32.391Z,21.42
2022-12-31T09:47:22.508Z,18.25
2022-12-31T09:50:24.312Z,17.58
2022-12-31T09:53:03.352Z,17.77
2022-12-31T09:55:54.282Z,17.45
2022-12-31T09:58:40.559Z,17.63
2022-12-31T10:01:37.995Z,16.02
2022-12-31T10:04:09.125Z,18.08
2022-12-31T10:06:49.011Z,17.35
2022-12-31T10:09:25.666Z,16.42
2022-12-31T10:12:20.802Z,19.30
2022-12-31T10:15:25.593Z,18.60
2022-12-31T10:18:14.335Z,17.05
2022-12-31T10:21:06.433Z,17.95
2022-12-31T10:24:07.278Z,18.35
2022-12-31T10:27:20.070Z,17.15
2022-12-31T10:30:25.851Z,17.30
2022-12-31T10:33:27.683Z,18.45
2022-12-31T10:36:29.057Z,18.00
2022-12-31T10:39:25.661Z,17.98
2022-12-31T10:42:14.872Z,18.75
2022-12-31T10:45:00.713Z,18.55
2022-12-31T10:48:14.408Z,18.50
2022-12-31T10:51:22.225Z,17.90
2022-12-31T10:54:04.390Z,18.52
2022-12-31T10:57:08.710Z,19.00
2022-12-31T10:59:45.577Z,19.08
2022-12-31T11:02:53.194Z,18.30
2022-12-31T11:05:36.424Z,17.98
2022-12-31T11:08:33.409Z,18.00
2022-12-31T11:11:22.850Z,17.40
2022-12-31T11:14:33.505Z,17.40
2022-12-31T11:17:29.005Z,17.30
2022-12-31T11:20:30.532Z,17.43
2022-12-31T11:23:20.076Z,17.65
2022-12-31T11:26:13.620Z,17.45
2022-12-31T11:29:23.447Z,17.58
2022-12-31T11:32:11.973Z,17.40
2022-12-31T11:35:03.472Z,17.67
2022-12-31T11:38:04.231Z,17.38
2022-12-31T11:40:56.860Z,18.13
2022-12-31T11:46:57.066Z,17.20
2022-12-31T11:49:54.310Z,16.88
2022-12-31T11:52:53.841Z,17.20
2022-12-31T11:55:43.737Z,18.52
2022-12-31T11:58:18.657Z,17.77
2022-12-31T12:01:19.485Z,17.13
2022-12-31T12:03:51.379Z,17.80
2022-12-31T12:06:31.118Z,17.23
2022-12-31T12:09:24.495Z,18.63
2022-12-31T12:12:05.284Z,16.45
2022-12-31T12:14:48.783Z,16.88
2022-12-31T12:17:34.121Z,18.87
2022-12-31T12:20:21.379Z,16.92
2022-12-31T12:22:55.068Z,16.90
2022-12-31T12:25:39.410Z,17.35
2022-12-31T12:28:46.924Z,16.80
2022-12-31T12:31:24.431Z,17.05
2022-12-31T12:33:56.065Z,16.83
2022-12-31T12:36:27.350Z,17.33
2022-12-31T12:39:05.312Z,18.65
2022-12-31T12:41:37.405Z,18.33
2022-12-31T12:44:16.132Z,16.58
2022-12-31T12:47:07.835Z,17.95
2022-12-31T12:49:50.088Z,17.20
2022-12-31T12:52:30.287Z,17.10
2022-12-31T12:55:13.113Z,16.58
2022-12-31T12:58:27.933Z,17.20
2022-12-31T13:04:32.346Z,17.10
2022-12-31T13:06:49.477Z,16.48
2022-12-31T13:10:00.530Z,17.75
2022-12-31T13:13:05.236Z,16.70
2022-12-31T13:16:00.489Z,16.30
2022-12-31T13:18:38.919Z,16.02
2022-12-31T13:21:34.446Z,15.65
2022-12-31T13:24:20.439Z,17.55
2022-12-31T13:27:00.302Z,17.17
2022-12-31T13:29:35.691Z,16.35
2022-12-31T13:32:27.939Z,16.25
2022-12-31T13:35:18.467Z,17.25
2022-12-31T13:37:53.069Z,16.70
2022-12-31T13:43:08.017Z,16.85
2022-12-31T13:45:45.337Z,17.65
2022-12-31T13:48:25.808Z,17.23
2022-12-31T13:54:08.729Z,17.27
2022-12-31T13:56:42.018Z,16.25
2022-12-31T13:59:15.916Z,17.20
2022-12-31T14:02:11.554Z,16.55
2022-12-31T14:04:53.669Z,16.95
2022-12-31T14:07:46.163Z,17.15
2022-12-31T14:10:18.861Z,17.15
2022-12-31T14:12:59.531Z,17.17
2022-12-31T14:15:49.775Z,16.58
2022-12-31T14:18:50.077Z,17.42
2022-12-31T14:24:55.243Z,17.48
2022-12-31T14:27:36.370Z,16.92
2022-12-31T14:30:12.529Z,17.85
2022-12-31T14:32:58.656Z,19.30
2022-12-31T14:35:44.592Z,18.02
2022-12-31T14:38:54.998Z,18.88
2022-12-31T14:41:55.260Z,17.63
2022-12-31T14:44:42.472Z,18.00
2022-12-31T14:47:37.423Z,17.02
2022-12-31T14:50:26.415Z,17.25
2022-12-31T14:56:28.729Z,17.23
2022-12-31T14:59:02.901Z,17.30
2022-12-31T15:04:16.657Z,17.25
2022-12-31T15:07:19.768Z,17.38
2022-12-31T15:10:20.460Z,18.08
2022-12-31T15:13:15.324Z,17.08
2022-12-31T15:15:46.497Z,16.27
2022-12-31T15:18:35.336Z,17.83
2022-12-31T15:21:34.831Z,17.00
2022-12-31T15:24:19.426Z,16.70
2022-12-31T15:26:57.585Z,18.52
2022-12-31T15:29:36.879Z,18.58
2022-12-31T15:32:18.327Z,17.73
2022-12-31T15:34:49.433Z,18.63
2022-12-31T15:37:37.866Z,17.23
2022-12-31T15:40:21.417Z,19.02
2022-12-31T15:43:00.106Z,19.38
2022-12-31T15:45:42.926Z,17.90
2022-12-31T15:48:34.940Z,18.35
2022-12-31T15:51:07.028Z,18.42
2022-12-31T15:56:48.684Z,18.17
2022-12-31T15:59:22.476Z,18.98
2022-12-31T16:02:30.967Z,18.45
2022-12-31T16:05:28.486Z,18.42
2022-12-31T16:08:01.441Z,19.20
2022-12-31T16:10:35.212Z,18.40
2022-12-31T16:13:07.888Z,19.58
2022-12-31T16:15:39.642Z,18.63
2022-12-31T16:18:22.547Z,18.73
2022-12-31T16:20:55.723Z,18.65
2022-12-31T16:23:29.179Z,18.23
2022-12-31T16:26:03.949Z,18.40
2022-12-31T16:28:57.872Z,19.25
2022-12-31T16:31:31.544Z,18.48
2022-12-31T16:34:14.352Z,18.73
2022-12-31T16:36:56.087Z,18.23
2022-12-31T16:45:46.078Z,18.85
2022-12-31T16:48:22.941Z,18.88
2022-12-31T16:50:56.423Z,19.95
2022-12-31T16:53:35.184Z,18.67
2022-12-31T16:56:12.427Z,19.63
2022-12-31T16:58:48.207Z,20.13
2022-12-31T17:01:29.929Z,19.33
2022-12-31T17:04:10.861Z,19.25
2022-12-31T17:06:42.011Z,19.05
2022-12-31T17:09:22.148Z,19.75
2022-12-31T17:12:05.147Z,20.48
2022-12-31T17:14:50.472Z,18.67
2022-12-31T17:17:28.155Z,18.98
2022-12-31T17:20:04.935Z,19.85
2022-12-31T17:23:23.866Z,19.63
2022-12-31T17:26:02.021Z,18.63
2022-12-31T17:28:45.206Z,18.52
2022-12-31T17:31:44.677Z,19.25
2022-12-31T17:34:21.174Z,19.48
2022-12-31T17:37:03.899Z,18.95
2022-12-31T17:39:47.133Z,18.85
2022-12-31T17:42:25.772Z,18.10
2022-12-31T17:45:04.698Z,19.52
2022-12-31T17:47:42.038Z,19.75
2022-12-31T17:50:33.353Z,19.30
2022-12-31T17:56:02.397Z,19.15
2022-12-31T17:58:38.200Z,20.30
2022-12-31T18:01:11.135Z,19.50
2022-12-31T18:03:42.875Z,18.90
2022-12-31T18:06:16.779Z,19.15
2022-12-31T18:08:48.314Z,19.45
2022-12-31T18:14:10.476Z,19.70
2022-12-31T18:16:41.569Z,19.95
2022-12-31T18:19:54.443Z,18.05
2022-12-31T18:22:08.807Z,19.17
2022-12-31T18:27:24.351Z,19.10
2022-12-31T18:30:02.284Z,18.58
2022-12-31T18:32:36.274Z,18.75
2022-12-31T18:35:40.658Z,20.63
2022-12-31T18:38:17.193Z,19.02
2022-12-31T18:41:00.171Z,19.35
2022-12-31T18:43:31.008Z,18.27
2022-12-31T18:46:03.917Z,20.70
2022-12-31T18:48:34.911Z,18.02
2022-12-31T18:51:05.818Z,18.88
2022-12-31T18:53:36.783Z,18.60
2022-12-31T18:56:08.000Z,18.42
2022-12-31T18:58:38.876Z,19.98
2022-12-31T19:01:32.821Z,19.55
2022-12-31T19:04:05.961Z,18.75
2022-12-31T19:06:36.916Z,19.20
2022-12-31T19:09:23.665Z,19.00
2022-12-31T19:11:59.248Z,18.38
2022-12-31T19:14:30.426Z,18.50
2022-12-31T19:19:33.213Z,17.88
2022-12-31T19:22:04.235Z,19.38
2022-12-31T19:24:35.236Z,19.17
2022-12-31T19:27:06.286Z,19.77
2022-12-31T19:29:37.238Z,18.90
2022-12-31T19:32:08.317Z,18.85
2022-12-31T19:34:39.375Z,17.73
2022-12-31T19:37:17.576Z,17.48
2022-12-31T19:39:48.590Z,19.48
2022-12-31T19:42:19.696Z,18.88
2022-12-31T19:44:50.698Z,17.85
2022-12-31T19:47:21.641Z,17.98
2022-12-31T19:49:52.598Z,19.40
2022-12-31T19:52:23.589Z,19.55
2022-12-31T19:54:54.613Z,18.55
2022-12-31T19:57:25.706Z,18.17
2022-12-31T20:00:23.518Z,18.35
2022-12-31T20:02:54.637Z,18.70
2022-12-31T20:05:25.779Z,18.80
2022-12-31T20:07:56.786Z,18.85
2022-12-31T20:10:27.783Z,18.38
2022-12-31T20:12:58.649Z,18.98
2022-12-31T20:15:49.350Z,18.85
2022-12-31T20:18:40.653Z,19.25
2022-12-31T20:21:14.188Z,18.75
2022-12-31T20:23:45.463Z,18.13
2022-12-31T20:26:18.562Z,17.48
2022-12-31T20:28:50.282Z,19.50
2022-12-31T20:31:24.950Z,18.58
2022-12-31T20:34:16.873Z,18.58
2022-12-31T20:36:49.160Z,19.42
2022-12-31T20:39:20.104Z,18.42
2022-12-31T20:41:51.162Z,17.60
2022-12-31T20:44:22.339Z,18.40
2022-12-31T20:47:13.829Z,20.10
2022-12-31T20:50:10.202Z,19.15
2022-12-31T20:52:35.798Z,18.38
2022-12-31T20:55:07.203Z,19.25
2022-12-31T20:57:38.941Z,17.92
2022-12-31T21:00:10.491Z,19.13
2022-12-31T21:02:43.095Z,19.27
2022-12-31T21:05:15.699Z,18.85
2022-12-31T21:07:46.900Z,19.50
2022-12-31T21:10:18.613Z,18.60
2022-12-31T21:12:54.789Z,18.25
2022-12-31T21:15:45.450Z,19.23
2022-12-31T21:18:16.424Z,18.60
2022-12-31T21:20:54.605Z,18.38
2022-12-31T21:23:25.649Z,17.35
2022-12-31T21:25:56.516Z,19.63
2022-12-31T21:28:27.547Z,17.88
2022-12-31T21:31:02.932Z,19.55
2022-12-31T21:33:34.484Z,17.77
2022-12-31T21:36:05.769Z,18.50
2022-12-31T21:41:41.439Z,20.00
2022-12-31T21:44:12.567Z,19.00
2022-12-31T21:47:15.735Z,19.20
2022-12-31T21:49:34.619Z,18.20
2022-12-31T21:52:24.093Z,19.27
2022-12-31T21:55:14.079Z,18.70
2022-12-31T21:58:24.247Z,19.48
2022-12-31T22:00:56.290Z,19.17
2022-12-31T22:03:28.873Z,18.33
2022-12-31T22:06:15.113Z,19.15
2022-12-31T22:08:49.007Z,18.27
2022-12-31T22:11:22.282Z,19.15
2022-12-31T22:13:54.005Z,18.85
2022-12-31T22:16:48.909Z,20.27
2022-12-31T22:19:19.963Z,17.75
2022-12-31T22:21:51.001Z,19.02
2022-12-31T22:24:24.749Z,18.75
2022-12-31T22:26:59.011Z,19.48
2022-12-31T22:30:10.940Z,18.75
2022-12-31T22:32:41.915Z,19.80
2022-12-31T22:35:13.040Z,18.33
2022-12-31T22:38:11.405Z,18.63
2022-12-31T22:41:03.833Z,19.98
2022-12-31T22:43:36.241Z,19.42
2022-12-31T22:46:28.442Z,19.15
2022-12-31T22:49:01.509Z,18.92
2022-12-31T22:51:56.903Z,20.83
2022-12-31T22:54:50.339Z,20.45
2022-12-31T22:57:21.402Z,18.83
2022-12-31T22:59:53.549Z,19.55
2022-12-31T23:02:28.998Z,19.23
2022-12-31T23:05:14.935Z,19.20
2022-12-31T23:07:47.276Z,20.85
2022-12-31T23:10:36.513Z,21.02
2022-12-31T23:13:27.292Z,19.25
2022-12-31T23:16:16.058Z,19.52
2022-12-31T23:19:05.704Z,20.25
2022-12-31T23:21:55.831Z,19.85
2022-12-31T23:24:29.792Z,20.10
2022-12-31T23:29:31.393Z,19.48
2022-12-31T23:32:23.471Z,18.85
2022-12-31T23:34:55.481Z,19.80
2022-12-31T23:37:26.408Z,19.05
2022-12-31T23:39:57.285Z,20.15
2022-12-31T23:42:28.294Z,19.80
2022-12-31T23:44:59.121Z,20.67
2022-12-31T23:50:13.812Z,20.75
2022-12-31T23:52:44.833Z,19.90
2022-12-31T23:55:15.938Z,19.65
2022-12-31T23:57:47.185Z,19.60
